sensor_id;sensor_type;location;lat;lon;timestamp;pressure;altitude;pressure_sealevel;temperature;humidity
72308;BME280;60257;42.638;23.376;2023-09-30T00:00:45;95085.47;;;15.28;65.76
72308;BME280;60257;42.638;23.376;2023-09-30T00:03:11;95083.59;;;15.32;65.72
72308;BME280;60257;42.638;23.376;2023-09-30T00:05:37;95076.59;;;15.38;65.65
72308;BME280;60257;42.638;23.376;2023-09-30T00:08:06;95070.63;;;15.36;65.74
72308;BME280;60257;42.638;23.376;2023-09-30T00:10:32;95070.56;;;15.33;66.45
72308;BME280;60257;42.638;23.376;2023-09-30T00:12:57;95074.56;;;15.35;65.89
72308;BME280;60257;42.638;23.376;2023-09-30T00:15:24;95080.03;;;15.32;64.60
72308;BME280;60257;42.638;23.376;2023-09-30T00:17:50;95075.22;;;15.29;64.29
72308;BME280;60257;42.638;23.376;2023-09-30T00:20:15;95077.81;;;15.41;64.60
72308;BME280;60257;42.638;23.376;2023-09-30T00:22:41;95072.59;;;15.36;64.87
72308;BME280;60257;42.638;23.376;2023-09-30T00:25:07;95067.81;;;15.33;64.56
72308;BME280;60257;42.638;23.376;2023-09-30T00:27:33;95072.59;;;15.36;64.30
72308;BME280;60257;42.638;23.376;2023-09-30T00:29:58;95074.69;;;15.43;63.92
72308;BME280;60257;42.638;23.376;2023-09-30T00:32:24;95066.03;;;15.44;64.28
72308;BME280;60257;42.638;23.376;2023-09-30T00:34:49;95070.44;;;15.49;64.10
72308;BME280;60257;42.638;23.376;2023-09-30T00:37:17;95067.97;;;15.44;64.28
72308;BME280;60257;42.638;23.376;2023-09-30T00:39:42;95071.56;;;15.44;64.88
72308;BME280;60257;42.638;23.376;2023-09-30T00:42:10;95062.78;;;15.38;65.03
72308;BME280;60257;42.638;23.376;2023-09-30T00:44:35;95071.13;;;15.42;64.38
72308;BME280;60257;42.638;23.376;2023-09-30T00:47:01;95052.09;;;15.37;64.49
72308;BME280;60257;42.638;23.376;2023-09-30T00:49:28;95063.97;;;15.41;64.44
72308;BME280;60257;42.638;23.376;2023-09-30T00:51:55;95073.38;;;15.36;64.08
72308;BME280;60257;42.638;23.376;2023-09-30T00:54:21;95062.41;;;15.40;63.82
72308;BME280;60257;42.638;23.376;2023-09-30T00:56:49;95067.06;;;15.36;64.84
72308;BME280;60257;42.638;23.376;2023-09-30T00:59:16;95068.66;;;15.37;64.39
72308;BME280;60257;42.638;23.376;2023-09-30T01:01:43;95062.81;;;15.42;63.99
72308;BME280;60257;42.638;23.376;2023-09-30T01:04:11;95064.41;;;15.43;64.13
72308;BME280;60257;42.638;23.376;2023-09-30T01:06:36;95065.59;;;15.42;63.69
72308;BME280;60257;42.638;23.376;2023-09-30T01:09:05;95060.44;;;15.40;64.24
72308;BME280;60257;42.638;23.376;2023-09-30T01:11:31;95056.44;;;15.38;63.60
72308;BME280;60257;42.638;23.376;2023-09-30T01:13:56;95057.97;;;15.35;63.82
72308;BME280;60257;42.638;23.376;2023-09-30T01:16:22;95050.47;;;15.36;63.08
72308;BME280;60257;42.638;23.376;2023-09-30T01:18:49;95053.69;;;15.38;64.00
72308;BME280;60257;42.638;23.376;2023-09-30T01:21:15;95051.22;;;15.33;63.71
72308;BME280;60257;42.638;23.376;2023-09-30T01:23:40;95062.78;;;15.38;64.32
72308;BME280;60257;42.638;23.376;2023-09-30T01:26:11;95058.53;;;15.45;63.28
72308;BME280;60257;42.638;23.376;2023-09-30T01:28:40;95055.31;;;15.43;63.67
72308;BME280;60257;42.638;23.376;2023-09-30T01:31:06;95051.28;;;15.36;63.69
72308;BME280;60257;42.638;23.376;2023-09-30T01:33:32;95056.88;;;15.40;63.71
72308;BME280;60257;42.638;23.376;2023-09-30T01:35:58;95054.16;;;15.44;63.65
72308;BME280;60257;42.638;23.376;2023-09-30T01:38:25;95056.09;;;15.39;63.21
72308;BME280;60257;42.638;23.376;2023-09-30T01:40:50;95039.38;;;15.32;63.36
72308;BME280;60257;42.638;23.376;2023-09-30T01:43:16;95060.69;;;15.32;63.73
72308;BME280;60257;42.638;23.376;2023-09-30T01:45:42;95055.81;;;15.25;63.48
72308;BME280;60257;42.638;23.376;2023-09-30T01:48:10;95052.63;;;15.23;64.17
72308;BME280;60257;42.638;23.376;2023-09-30T01:50:39;95061.34;;;15.25;63.86
72308;BME280;60257;42.638;23.376;2023-09-30T01:53:08;95055.09;;;15.28;63.20
72308;BME280;60257;42.638;23.376;2023-09-30T01:55:34;95047.50;;;15.25;63.46
72308;BME280;60257;42.638;23.376;2023-09-30T01:58:00;95047.16;;;15.27;63.02
72308;BME280;60257;42.638;23.376;2023-09-30T02:00:25;95047.16;;;15.27;63.05
72308;BME280;60257;42.638;23.376;2023-09-30T02:02:53;95053.84;;;15.26;62.98
72308;BME280;60257;42.638;23.376;2023-09-30T02:05:19;95053.78;;;15.22;63.45
72308;BME280;60257;42.638;23.376;2023-09-30T02:07:45;95045.06;;;15.20;63.41
72308;BME280;60257;42.638;23.376;2023-09-30T02:10:10;95044.63;;;15.18;63.40
72308;BME280;60257;42.638;23.376;2023-09-30T02:12:36;95040.69;;;15.19;63.76
72308;BME280;60257;42.638;23.376;2023-09-30T02:15:03;95039.97;;;15.22;63.48
72308;BME280;60257;42.638;23.376;2023-09-30T02:17:29;95041.06;;;15.18;63.07
72308;BME280;60257;42.638;23.376;2023-09-30T02:19:54;95042.97;;;15.14;63.21
72308;BME280;60257;42.638;23.376;2023-09-30T02:22:20;95035.41;;;15.11;63.04
72308;BME280;60257;42.638;23.376;2023-09-30T02:24:45;95046.31;;;15.03;63.36
72308;BME280;60257;42.638;23.376;2023-09-30T02:27:11;95048.59;;;14.98;63.42
72308;BME280;60257;42.638;23.376;2023-09-30T02:29:36;95048.25;;;14.99;63.30
72308;BME280;60257;42.638;23.376;2023-09-30T02:32:02;95037.47;;;14.94;63.68
72308;BME280;60257;42.638;23.376;2023-09-30T02:34:30;95040.25;;;14.75;64.23
72308;BME280;60257;42.638;23.376;2023-09-30T02:36:55;95036.41;;;14.80;64.19
72308;BME280;60257;42.638;23.376;2023-09-30T02:39:21;95036.84;;;14.82;64.47
72308;BME280;60257;42.638;23.376;2023-09-30T02:41:46;95046.41;;;14.88;64.13
72308;BME280;60257;42.638;23.376;2023-09-30T02:44:14;95048.56;;;14.75;64.48
72308;BME280;60257;42.638;23.376;2023-09-30T02:46:40;95047.75;;;14.75;64.46
72308;BME280;60257;42.638;23.376;2023-09-30T02:49:05;95044.41;;;14.66;65.57
72308;BME280;60257;42.638;23.376;2023-09-30T02:51:31;95040.13;;;14.68;65.19
72308;BME280;60257;42.638;23.376;2023-09-30T02:53:56;95045.06;;;14.59;65.42
72308;BME280;60257;42.638;23.376;2023-09-30T02:56:22;95053.63;;;14.54;65.75
72308;BME280;60257;42.638;23.376;2023-09-30T02:58:50;95041.81;;;14.53;66.44
72308;BME280;60257;42.638;23.376;2023-09-30T03:01:17;95049.63;;;14.51;66.68
72308;BME280;60257;42.638;23.376;2023-09-30T03:03:43;95046.88;;;14.51;66.68
72308;BME280;60257;42.638;23.376;2023-09-30T03:06:11;95047.19;;;14.46;66.78
72308;BME280;60257;42.638;23.376;2023-09-30T03:08:37;95040.66;;;14.54;66.86
72308;BME280;60257;42.638;23.376;2023-09-30T03:11:03;95049.78;;;14.58;67.05
72308;BME280;60257;42.638;23.376;2023-09-30T03:13:29;95050.66;;;14.62;66.86
72308;BME280;60257;42.638;23.376;2023-09-30T03:15:56;95048.84;;;14.51;67.31
72308;BME280;60257;42.638;23.376;2023-09-30T03:18:22;95049.28;;;14.53;67.22
72308;BME280;60257;42.638;23.376;2023-09-30T03:20:59;95053.56;;;14.50;67.31
72308;BME280;60257;42.638;23.376;2023-09-30T03:23:33;95037.16;;;14.38;67.67
72308;BME280;60257;42.638;23.376;2023-09-30T03:25:59;95050.28;;;14.45;67.91
72308;BME280;60257;42.638;23.376;2023-09-30T03:28:26;95047.03;;;14.39;67.89
72308;BME280;60257;42.638;23.376;2023-09-30T03:30:51;95033.81;;;14.33;67.90
72308;BME280;60257;42.638;23.376;2023-09-30T03:33:17;95047.25;;;14.34;68.53
72308;BME280;60257;42.638;23.376;2023-09-30T03:35:43;95035.81;;;14.32;68.17
72308;BME280;60257;42.638;23.376;2023-09-30T03:38:09;95051.09;;;14.45;67.94
72308;BME280;60257;42.638;23.376;2023-09-30T03:40:35;95044.16;;;14.36;68.53
72308;BME280;60257;42.638;23.376;2023-09-30T03:43:03;95048.81;;;14.32;68.48
72308;BME280;60257;42.638;23.376;2023-09-30T03:45:31;95042.66;;;14.38;68.58
72308;BME280;60257;42.638;23.376;2023-09-30T03:47:58;95036.72;;;14.20;69.24
72308;BME280;60257;42.638;23.376;2023-09-30T03:50:23;95040.63;;;14.19;68.61
72308;BME280;60257;42.638;23.376;2023-09-30T03:52:49;95045.00;;;14.20;68.66
72308;BME280;60257;42.638;23.376;2023-09-30T03:55:16;95040.13;;;14.14;69.52
72308;BME280;60257;42.638;23.376;2023-09-30T03:57:43;95042.59;;;14.19;69.30
72308;BME280;60257;42.638;23.376;2023-09-30T04:00:13;95049.66;;;14.16;69.83
72308;BME280;60257;42.638;23.376;2023-09-30T04:02:42;95054.75;;;13.99;70.54
72308;BME280;60257;42.638;23.376;2023-09-30T04:05:08;95042.38;;;14.08;69.72
72308;BME280;60257;42.638;23.376;2023-09-30T04:07:36;95045.50;;;14.07;69.74
72308;BME280;60257;42.638;23.376;2023-09-30T04:10:02;95050.41;;;13.98;70.57
72308;BME280;60257;42.638;23.376;2023-09-30T04:12:29;95048.09;;;14.00;70.50
72308;BME280;60257;42.638;23.376;2023-09-30T04:14:55;95057.50;;;13.99;70.53
72308;BME280;60257;42.638;23.376;2023-09-30T04:17:20;95051.28;;;13.86;71.03
72308;BME280;60257;42.638;23.376;2023-09-30T04:19:48;95052.66;;;13.92;70.66
72308;BME280;60257;42.638;23.376;2023-09-30T04:22:16;95061.28;;;13.75;71.62
72308;BME280;60257;42.638;23.376;2023-09-30T04:24:42;95060.38;;;13.71;71.42
72308;BME280;60257;42.638;23.376;2023-09-30T04:27:07;95065.91;;;13.71;71.13
72308;BME280;60257;42.638;23.376;2023-09-30T04:29:33;95065.91;;;13.55;71.47
72308;BME280;60257;42.638;23.376;2023-09-30T04:31:59;95059.25;;;13.56;71.47
72308;BME280;60257;42.638;23.376;2023-09-30T04:34:25;95065.19;;;13.58;71.86
72308;BME280;60257;42.638;23.376;2023-09-30T04:36:52;95060.03;;;13.57;71.83
72308;BME280;60257;42.638;23.376;2023-09-30T04:39:18;95066.63;;;13.52;72.28
72308;BME280;60257;42.638;23.376;2023-09-30T04:41:43;95067.69;;;13.47;72.56
72308;BME280;60257;42.638;23.376;2023-09-30T04:44:09;95070.19;;;13.53;72.19
72308;BME280;60257;42.638;23.376;2023-09-30T04:46:38;95078.53;;;13.40;72.38
72308;BME280;60257;42.638;23.376;2023-09-30T04:49:12;95071.88;;;13.41;72.82
72308;BME280;60257;42.638;23.376;2023-09-30T04:51:38;95083.34;;;13.43;72.50
72308;BME280;60257;42.638;23.376;2023-09-30T04:54:05;95081.19;;;13.37;72.42
72308;BME280;60257;42.638;23.376;2023-09-30T04:56:32;95081.72;;;13.42;71.96
72308;BME280;60257;42.638;23.376;2023-09-30T04:58:57;95077.03;;;13.43;72.21
72308;BME280;60257;42.638;23.376;2023-09-30T05:01:24;95076.56;;;13.41;72.02
72308;BME280;60257;42.638;23.376;2023-09-30T05:03:50;95088.16;;;13.46;72.54
72308;BME280;60257;42.638;23.376;2023-09-30T05:06:15;95080.94;;;13.42;72.19
72308;BME280;60257;42.638;23.376;2023-09-30T05:08:41;95085.47;;;13.50;71.76
72308;BME280;60257;42.638;23.376;2023-09-30T05:11:07;95081.28;;;13.56;71.58
72308;BME280;60257;42.638;23.376;2023-09-30T05:13:32;95081.47;;;13.63;71.65
72308;BME280;60257;42.638;23.376;2023-09-30T05:15:59;95091.44;;;13.68;71.63
72308;BME280;60257;42.638;23.376;2023-09-30T05:18:25;95093.47;;;13.71;71.28
72308;BME280;60257;42.638;23.376;2023-09-30T05:20:50;95088.75;;;13.71;71.27
72308;BME280;60257;42.638;23.376;2023-09-30T05:23:16;95088.91;;;13.78;70.88
72308;BME280;60257;42.638;23.376;2023-09-30T05:25:43;95092.66;;;13.86;70.89
72308;BME280;60257;42.638;23.376;2023-09-30T05:28:08;95091.13;;;13.88;71.29
72308;BME280;60257;42.638;23.376;2023-09-30T05:30:34;95081.44;;;13.95;70.72
72308;BME280;60257;42.638;23.376;2023-09-30T05:33:00;95084.09;;;14.07;70.53
72308;BME280;60257;42.638;23.376;2023-09-30T05:35:26;95094.16;;;13.99;70.61
72308;BME280;60257;42.638;23.376;2023-09-30T05:37:53;95090.47;;;14.11;71.60
72308;BME280;60257;42.638;23.376;2023-09-30T05:40:19;95089.13;;;14.20;71.10
72308;BME280;60257;42.638;23.376;2023-09-30T05:42:49;95099.06;;;14.25;70.47
72308;BME280;60257;42.638;23.376;2023-09-30T05:45:15;95098.72;;;14.26;70.47
72308;BME280;60257;42.638;23.376;2023-09-30T05:47:41;95098.66;;;14.23;71.04
72308;BME280;60257;42.638;23.376;2023-09-30T05:50:07;95105.50;;;14.29;70.31
72308;BME280;60257;42.638;23.376;2023-09-30T05:52:34;95105.03;;;14.43;69.84
72308;BME280;60257;42.638;23.376;2023-09-30T05:55:01;95102.06;;;14.51;70.16
72308;BME280;60257;42.638;23.376;2023-09-30T05:57:27;95104.69;;;14.63;69.69
72308;BME280;60257;42.638;23.376;2023-09-30T05:59:54;95106.72;;;14.67;69.72
72308;BME280;60257;42.638;23.376;2023-09-30T06:02:21;95105.81;;;14.78;69.66
72308;BME280;60257;42.638;23.376;2023-09-30T06:04:46;95112.19;;;14.82;69.36
72308;BME280;60257;42.638;23.376;2023-09-30T06:07:12;95118.34;;;14.95;69.92
72308;BME280;60257;42.638;23.376;2023-09-30T06:09:38;95114.28;;;14.89;69.18
72308;BME280;60257;42.638;23.376;2023-09-30T06:12:03;95119.75;;;14.85;69.13
72308;BME280;60257;42.638;23.376;2023-09-30T06:14:32;95118.31;;;14.91;69.02
72308;BME280;60257;42.638;23.376;2023-09-30T06:16:57;95125.13;;;14.97;68.15
72308;BME280;60257;42.638;23.376;2023-09-30T06:19:23;95129.72;;;15.09;67.86
72308;BME280;60257;42.638;23.376;2023-09-30T06:21:51;95126.81;;;15.02;66.97
72308;BME280;60257;42.638;23.376;2023-09-30T06:24:17;95128.91;;;15.09;66.17
72308;BME280;60257;42.638;23.376;2023-09-30T06:26:45;95130.84;;;15.27;65.08
72308;BME280;60257;42.638;23.376;2023-09-30T06:29:10;95121.97;;;15.37;64.75
72308;BME280;60257;42.638;23.376;2023-09-30T06:31:37;95123.38;;;15.51;63.93
72308;BME280;60257;42.638;23.376;2023-09-30T06:34:02;95127.25;;;15.65;63.44
72308;BME280;60257;42.638;23.376;2023-09-30T06:36:29;95135.13;;;15.63;63.36
72308;BME280;60257;42.638;23.376;2023-09-30T06:38:54;95128.25;;;15.76;63.43
72308;BME280;60257;42.638;23.376;2023-09-30T06:41:20;95130.31;;;15.83;62.65
72308;BME280;60257;42.638;23.376;2023-09-30T06:43:45;95123.00;;;15.94;61.11
72308;BME280;60257;42.638;23.376;2023-09-30T06:46:12;95127.53;;;16.06;61.38
72308;BME280;60257;42.638;23.376;2023-09-30T06:48:38;95124.88;;;16.13;61.26
72308;BME280;60257;42.638;23.376;2023-09-30T06:51:06;95129.78;;;16.23;60.42
72308;BME280;60257;42.638;23.376;2023-09-30T06:53:31;95133.84;;;16.29;59.41
72308;BME280;60257;42.638;23.376;2023-09-30T06:55:57;95137.47;;;16.33;60.04
72308;BME280;60257;42.638;23.376;2023-09-30T06:58:22;95140.03;;;16.45;58.75
72308;BME280;60257;42.638;23.376;2023-09-30T07:00:50;95136.56;;;16.52;58.76
72308;BME280;60257;42.638;23.376;2023-09-30T07:03:16;95139.88;;;16.61;58.85
72308;BME280;60257;42.638;23.376;2023-09-30T07:05:41;95139.25;;;16.71;58.65
72308;BME280;60257;42.638;23.376;2023-09-30T07:08:08;95131.06;;;16.82;59.33
72308;BME280;60257;42.638;23.376;2023-09-30T07:10:33;95143.13;;;16.97;58.16
72308;BME280;60257;42.638;23.376;2023-09-30T07:13:02;95144.44;;;17.06;57.09
72308;BME280;60257;42.638;23.376;2023-09-30T07:15:27;95148.91;;;17.14;56.23
72308;BME280;60257;42.638;23.376;2023-09-30T07:17:53;95152.22;;;17.27;55.89
72308;BME280;60257;42.638;23.376;2023-09-30T07:20:18;95147.59;;;17.38;54.73
72308;BME280;60257;42.638;23.376;2023-09-30T07:22:45;95151.59;;;17.41;54.33
72308;BME280;60257;42.638;23.376;2023-09-30T07:25:12;95143.78;;;17.50;53.83
72308;BME280;60257;42.638;23.376;2023-09-30T07:27:40;95148.22;;;17.58;53.82
72308;BME280;60257;42.638;23.376;2023-09-30T07:30:05;95137.63;;;17.63;53.62
72308;BME280;60257;42.638;23.376;2023-09-30T07:32:32;95145.66;;;17.72;52.81
72308;BME280;60257;42.638;23.376;2023-09-30T07:34:57;95140.16;;;17.79;52.24
72308;BME280;60257;42.638;23.376;2023-09-30T07:37:22;95146.56;;;17.87;51.75
72308;BME280;60257;42.638;23.376;2023-09-30T07:39:49;95139.50;;;17.93;51.11
72308;BME280;60257;42.638;23.376;2023-09-30T07:42:15;95147.16;;;18.06;50.66
72308;BME280;60257;42.638;23.376;2023-09-30T07:44:42;95147.19;;;18.14;50.35
72308;BME280;60257;42.638;23.376;2023-09-30T07:47:07;95147.25;;;18.21;50.92
72308;BME280;60257;42.638;23.376;2023-09-30T07:49:34;95151.31;;;18.30;49.18
72308;BME280;60257;42.638;23.376;2023-09-30T07:51:59;95149.78;;;18.36;49.09
72308;BME280;60257;42.638;23.376;2023-09-30T07:54:25;95143.03;;;18.37;48.12
72308;BME280;60257;42.638;23.376;2023-09-30T07:56:50;95141.09;;;18.45;48.58
72308;BME280;60257;42.638;23.376;2023-09-30T07:59:16;95139.97;;;18.53;48.93
72308;BME280;60257;42.638;23.376;2023-09-30T08:01:41;95142.06;;;18.67;48.50
72308;BME280;60257;42.638;23.376;2023-09-30T08:04:07;95147.75;;;18.81;47.43
72308;BME280;60257;42.638;23.376;2023-09-30T08:06:32;95145.38;;;18.87;47.01
72308;BME280;60257;42.638;23.376;2023-09-30T08:08:58;95150.19;;;18.93;45.83
72308;BME280;60257;42.638;23.376;2023-09-30T08:11:23;95137.50;;;18.96;46.61
72308;BME280;60257;42.638;23.376;2023-09-30T08:13:53;95150.63;;;19.02;45.67
72308;BME280;60257;42.638;23.376;2023-09-30T08:16:18;95152.69;;;19.12;45.79
72308;BME280;60257;42.638;23.376;2023-09-30T08:18:44;95143.50;;;19.08;45.15
72308;BME280;60257;42.638;23.376;2023-09-30T08:21:10;95147.53;;;19.21;44.87
72308;BME280;60257;42.638;23.376;2023-09-30T08:23:38;95138.44;;;19.25;44.26
72308;BME280;60257;42.638;23.376;2023-09-30T08:26:05;95146.78;;;19.25;44.63
72308;BME280;60257;42.638;23.376;2023-09-30T08:28:31;95151.19;;;19.33;43.97
72308;BME280;60257;42.638;23.376;2023-09-30T08:31:05;95143.66;;;19.44;43.78
72308;BME280;60257;42.638;23.376;2023-09-30T08:33:31;95145.31;;;19.59;43.75
72308;BME280;60257;42.638;23.376;2023-09-30T08:36:03;95142.13;;;19.53;42.97
72308;BME280;60257;42.638;23.376;2023-09-30T08:38:37;95147.34;;;19.66;42.45
72308;BME280;60257;42.638;23.376;2023-09-30T08:41:03;95152.50;;;19.67;42.48
72308;BME280;60257;42.638;23.376;2023-09-30T08:43:29;95143.38;;;19.70;42.70
72308;BME280;60257;42.638;23.376;2023-09-30T08:45:58;95140.22;;;19.72;41.78
72308;BME280;60257;42.638;23.376;2023-09-30T08:48:26;95143.41;;;19.81;42.08
72308;BME280;60257;42.638;23.376;2023-09-30T08:50:55;95135.47;;;19.93;41.68
72308;BME280;60257;42.638;23.376;2023-09-30T08:53:22;95141.44;;;20.13;41.32
72308;BME280;60257;42.638;23.376;2023-09-30T08:55:49;95140.28;;;20.11;40.01
72308;BME280;60257;42.638;23.376;2023-09-30T08:58:19;95139.88;;;20.05;40.59
72308;BME280;60257;42.638;23.376;2023-09-30T09:00:45;95129.94;;;20.11;40.55
72308;BME280;60257;42.638;23.376;2023-09-30T09:03:11;95130.31;;;20.17;40.14
72308;BME280;60257;42.638;23.376;2023-09-30T09:05:36;95132.72;;;20.25;39.77
72308;BME280;60257;42.638;23.376;2023-09-30T09:08:02;95131.53;;;20.26;40.24
72308;BME280;60257;42.638;23.376;2023-09-30T09:10:27;95123.16;;;20.23;39.83
72308;BME280;60257;42.638;23.376;2023-09-30T09:12:58;95123.97;;;20.27;39.46
72308;BME280;60257;42.638;23.376;2023-09-30T09:15:28;95125.56;;;20.39;38.28
72308;BME280;60257;42.638;23.376;2023-09-30T09:17:54;95117.59;;;20.44;37.75
72308;BME280;60257;42.638;23.376;2023-09-30T09:20:24;95120.41;;;20.55;38.47
72308;BME280;60257;42.638;23.376;2023-09-30T09:22:55;95123.56;;;20.64;38.76
72308;BME280;60257;42.638;23.376;2023-09-30T09:25:22;95121.19;;;20.62;37.83
72308;BME280;60257;42.638;23.376;2023-09-30T09:27:51;95112.00;;;20.69;36.73
72308;BME280;60257;42.638;23.376;2023-09-30T09:30:25;95119.13;;;20.91;35.94
72308;BME280;60257;42.638;23.376;2023-09-30T09:33:05;95124.72;;;20.84;35.53
72308;BME280;60257;42.638;23.376;2023-09-30T09:35:32;95115.97;;;20.82;35.99
72308;BME280;60257;42.638;23.376;2023-09-30T09:38:06;95124.72;;;20.95;35.79
72308;BME280;60257;42.638;23.376;2023-09-30T09:40:36;95111.97;;;20.97;36.41
72308;BME280;60257;42.638;23.376;2023-09-30T09:43:03;95120.72;;;20.96;37.05
72308;BME280;60257;42.638;23.376;2023-09-30T09:45:35;95109.16;;;21.04;36.42
72308;BME280;60257;42.638;23.376;2023-09-30T09:48:01;95102.75;;;21.07;35.81
72308;BME280;60257;42.638;23.376;2023-09-30T09:50:27;95101.19;;;21.03;36.79
72308;BME280;60257;42.638;23.376;2023-09-30T09:52:53;95099.16;;;21.07;37.35
72308;BME280;60257;42.638;23.376;2023-09-30T09:55:22;95100.34;;;21.17;37.73
72308;BME280;60257;42.638;23.376;2023-09-30T09:57:49;95097.94;;;21.15;35.45
72308;BME280;60257;42.638;23.376;2023-09-30T10:00:22;95105.06;;;21.34;35.74
72308;BME280;60257;42.638;23.376;2023-09-30T10:02:49;95086.34;;;21.31;35.20
72308;BME280;60257;42.638;23.376;2023-09-30T10:05:16;95098.25;;;21.42;35.45
72308;BME280;60257;42.638;23.376;2023-09-30T10:07:51;95086.75;;;21.36;35.06
72308;BME280;60257;42.638;23.376;2023-09-30T10:10:19;95084.63;;;21.58;35.04
72308;BME280;60257;42.638;23.376;2023-09-30T10:12:45;95097.34;;;21.66;34.36
72308;BME280;60257;42.638;23.376;2023-09-30T10:20:30;95083.44;;;21.56;34.53
72308;BME280;60257;42.638;23.376;2023-09-30T10:25:43;95070.13;;;21.77;34.87
72308;BME280;60257;42.638;23.376;2023-09-30T10:28:41;95066.47;;;21.91;33.51
72308;BME280;60257;42.638;23.376;2023-09-30T10:31:20;95060.09;;;21.87;32.98
72308;BME280;60257;42.638;23.376;2023-09-30T10:36:38;95050.88;;;21.94;32.93
72308;BME280;60257;42.638;23.376;2023-09-30T10:39:05;95051.59;;;22.08;33.30
72308;BME280;60257;42.638;23.376;2023-09-30T10:46:54;95043.25;;;22.46;31.01
72308;BME280;60257;42.638;23.376;2023-09-30T10:51:55;95030.13;;;22.43;30.75
72308;BME280;60257;42.638;23.376;2023-09-30T10:54:24;95036.22;;;22.31;30.96
72308;BME280;60257;42.638;23.376;2023-09-30T10:56:50;95041.00;;;22.34;30.72
72308;BME280;60257;42.638;23.376;2023-09-30T10:59:24;95044.53;;;22.38;30.21
72308;BME280;60257;42.638;23.376;2023-09-30T11:01:50;95032.81;;;22.53;30.27
72308;BME280;60257;42.638;23.376;2023-09-30T11:04:17;95032.03;;;22.53;30.23
72308;BME280;60257;42.638;23.376;2023-09-30T11:06:44;95040.44;;;22.53;30.40
72308;BME280;60257;42.638;23.376;2023-09-30T11:09:15;95033.44;;;22.75;30.04
72308;BME280;60257;42.638;23.376;2023-09-30T11:11:45;95027.41;;;22.73;29.63
72308;BME280;60257;42.638;23.376;2023-09-30T11:14:25;95023.03;;;22.76;29.73
72308;BME280;60257;42.638;23.376;2023-09-30T11:16:53;95027.09;;;22.68;29.54
72308;BME280;60257;42.638;23.376;2023-09-30T11:19:19;95028.25;;;22.74;29.27
72308;BME280;60257;42.638;23.376;2023-09-30T11:21:49;95023.03;;;22.72;28.85
72308;BME280;60257;42.638;23.376;2023-09-30T11:24:16;95009.81;;;22.39;29.44
72308;BME280;60257;42.638;23.376;2023-09-30T11:26:41;95022.34;;;22.61;29.34
72308;BME280;60257;42.638;23.376;2023-09-30T11:29:11;95027.41;;;22.73;29.60
72308;BME280;60257;42.638;23.376;2023-09-30T11:31:40;95019.44;;;22.75;29.45
72308;BME280;60257;42.638;23.376;2023-09-30T11:34:07;95022.25;;;22.72;29.62
72308;BME280;60257;42.638;23.376;2023-09-30T11:36:38;95021.59;;;22.57;29.93
72308;BME280;60257;42.638;23.376;2023-09-30T11:39:04;95022.00;;;22.59;30.09
72308;BME280;60257;42.638;23.376;2023-09-30T11:41:34;95009.53;;;22.63;29.81
72308;BME280;60257;42.638;23.376;2023-09-30T11:44:04;95022.69;;;22.67;30.40
72308;BME280;60257;42.638;23.376;2023-09-30T11:46:53;95013.06;;;22.71;30.04
72308;BME280;60257;42.638;23.376;2023-09-30T11:49:33;95010.34;;;22.64;30.18
72308;BME280;60257;42.638;23.376;2023-09-30T11:52:10;95001.97;;;22.64;30.01
72308;BME280;60257;42.638;23.376;2023-09-30T11:54:44;94996.22;;;22.78;30.48
72308;BME280;60257;42.638;23.376;2023-09-30T11:57:12;94996.03;;;22.96;30.67
72308;BME280;60257;42.638;23.376;2023-09-30T11:59:40;95002.44;;;22.93;29.95
72308;BME280;60257;42.638;23.376;2023-09-30T12:02:07;94998.09;;;22.88;30.07
72308;BME280;60257;42.638;23.376;2023-09-30T12:04:34;95000.91;;;22.88;30.12
72308;BME280;60257;42.638;23.376;2023-09-30T12:06:59;95000.13;;;22.88;29.94
72308;BME280;60257;42.638;23.376;2023-09-30T12:09:25;94991.81;;;22.81;30.12
72308;BME280;60257;42.638;23.376;2023-09-30T12:11:53;94983.03;;;22.79;30.15
72308;BME280;60257;42.638;23.376;2023-09-30T12:14:19;94988.13;;;22.87;30.11
72308;BME280;60257;42.638;23.376;2023-09-30T12:16:46;94976.16;;;22.87;30.12
72308;BME280;60257;42.638;23.376;2023-09-30T12:19:13;94977.31;;;22.89;29.89
72308;BME280;60257;42.638;23.376;2023-09-30T12:21:41;94972.75;;;23.02;29.74
72308;BME280;60257;42.638;23.376;2023-09-30T12:24:07;94969.34;;;22.88;30.43
72308;BME280;60257;42.638;23.376;2023-09-30T12:26:35;94981.22;;;22.99;29.81
72308;BME280;60257;42.638;23.376;2023-09-30T12:29:00;94968.22;;;22.82;30.27
72308;BME280;60257;42.638;23.376;2023-09-30T12:31:26;94967.25;;;22.95;30.47
72308;BME280;60257;42.638;23.376;2023-09-30T12:33:51;94972.47;;;22.93;30.28
72308;BME280;60257;42.638;23.376;2023-09-30T12:36:21;94966.13;;;22.89;30.65
72308;BME280;60257;42.638;23.376;2023-09-30T12:38:47;94968.03;;;22.99;30.50
72308;BME280;60257;42.638;23.376;2023-09-30T12:41:13;94959.97;;;23.01;29.80
72308;BME280;60257;42.638;23.376;2023-09-30T12:43:40;94962.44;;;22.99;29.92
72308;BME280;60257;42.638;23.376;2023-09-30T12:46:10;94957.78;;;22.86;30.07
72308;BME280;60257;42.638;23.376;2023-09-30T12:48:38;94968.47;;;22.94;29.30
72308;BME280;60257;42.638;23.376;2023-09-30T12:51:04;94950.16;;;22.90;29.84
72308;BME280;60257;42.638;23.376;2023-09-30T12:53:32;94953.84;;;22.83;30.33
72308;BME280;60257;42.638;23.376;2023-09-30T12:55:57;94953.03;;;22.83;29.45
72308;BME280;60257;42.638;23.376;2023-09-30T12:58:28;94953.75;;;22.90;29.97
72308;BME280;60257;42.638;23.376;2023-09-30T13:00:55;94941.75;;;22.90;29.69
72308;BME280;60257;42.638;23.376;2023-09-30T13:03:21;94946.16;;;22.91;29.46
72308;BME280;60257;42.638;23.376;2023-09-30T13:05:47;94944.59;;;22.86;30.29
72308;BME280;60257;42.638;23.376;2023-09-30T13:08:12;94935.50;;;22.79;30.02